createdAt,value
2022-11-25T00:01:28.592Z,91.95
2022-11-25T00:03:57.248Z,92.63
2022-11-25T00:06:26.584Z,92.32
2022-11-25T00:08:58.506Z,92.49
2022-11-25T00:11:26.092Z,93.12
2022-11-25T00:13:53.254Z,92.83
2022-11-25T00:16:22.617Z,93.44
2022-11-25T00:18:54.562Z,93.64
2022-11-25T00:21:23.990Z,93.69
2022-11-25T00:24:02.002Z,93.66
2022-11-25T00:26:32.814Z,94.45
2022-11-25T00:29:03.141Z,94.32
2022-11-25T00:31:36.115Z,94.29
2022-11-25T00:34:03.701Z,93.78
2022-11-25T00:36:36.251Z,93.71
2022-11-25T00:39:11.936Z,94.39
2022-11-25T00:42:14.529Z,93.82
2022-11-25T00:44:41.947Z,94.15
2022-11-25T00:47:15.606Z,93.73
2022-11-25T00:49:47.219Z,93.85
2022-11-25T00:52:17.897Z,93.65
2022-11-25T00:54:46.324Z,93.76
2022-11-25T00:57:13.560Z,93.91
2022-11-25T00:59:40.911Z,93.85
2022-11-25T01:02:08.432Z,94.00
2022-11-25T01:04:35.914Z,93.46
2022-11-25T01:07:03.075Z,93.58
2022-11-25T01:09:31.161Z,93.34
2022-11-25T01:11:58.504Z,93.47
2022-11-25T01:14:25.584Z,93.61
2022-11-25T01:16:52.969Z,93.41
2022-11-25T01:19:20.795Z,93.19
2022-11-25T01:21:47.821Z,93.13
2022-11-25T01:24:16.179Z,93.01
2022-11-25T01:26:44.335Z,92.84
2022-11-25T01:29:16.761Z,92.97
2022-11-25T01:31:44.999Z,92.66
2022-11-25T01:34:13.910Z,92.71
2022-11-25T01:36:40.892Z,92.80
2022-11-25T01:39:08.026Z,93.29
2022-11-25T01:41:35.734Z,92.80
2022-11-25T01:44:28.193Z,93.25
2022-11-25T01:47:00.014Z,93.19
2022-11-25T01:49:59.754Z,92.77
2022-11-25T01:52:35.864Z,92.79
2022-11-25T01:55:09.429Z,92.93
2022-11-25T01:57:54.037Z,93.03
2022-11-25T02:00:21.426Z,93.10
2022-11-25T02:02:50.738Z,92.73
2022-11-25T02:05:33.781Z,93.13
2022-11-25T02:08:20.203Z,93.21
2022-11-25T02:11:05.296Z,92.45
2022-11-25T02:13:49.917Z,93.09
2022-11-25T02:16:35.506Z,92.87
2022-11-25T02:19:29.372Z,92.50
2022-11-25T02:22:23.744Z,92.96
2022-11-25T02:25:18.573Z,92.94
2022-11-25T02:28:11.869Z,93.02
2022-11-25T02:30:39.178Z,93.01
2022-11-25T02:33:07.099Z,92.89
2022-11-25T02:35:35.514Z,93.26
2022-11-25T02:38:21.229Z,92.82
2022-11-25T02:40:49.310Z,92.42
2022-11-25T02:43:17.662Z,93.08
2022-11-25T02:45:57.325Z,93.14
2022-11-25T02:48:45.769Z,92.80
2022-11-25T02:51:16.849Z,92.61
2022-11-25T02:53:43.813Z,92.31
2022-11-25T02:56:12.459Z,92.83
2022-11-25T02:58:40.391Z,92.58
2022-11-25T03:01:07.653Z,92.91
2022-11-25T03:03:34.711Z,92.69
2022-11-25T03:06:02.390Z,93.18
2022-11-25T03:08:29.390Z,92.68
2022-11-25T03:10:56.292Z,92.42
2022-11-25T03:13:23.475Z,92.55
2022-11-25T03:15:50.454Z,92.35
2022-11-25T03:18:17.384Z,92.21
2022-11-25T03:20:44.231Z,91.76
2022-11-25T03:23:11.248Z,92.34
2022-11-25T03:25:38.160Z,92.20
2022-11-25T03:28:05.293Z,92.32
2022-11-25T03:30:32.351Z,92.03
2022-11-25T03:32:59.286Z,92.55
2022-11-25T03:35:26.410Z,92.06
2022-11-25T03:37:53.585Z,92.61
2022-11-25T03:40:20.616Z,92.90
2022-11-25T03:42:47.621Z,92.65
2022-11-25T03:45:16.116Z,92.30
2022-11-25T03:47:44.600Z,93.87
2022-11-25T03:50:13.566Z,92.96
2022-11-25T03:52:40.638Z,93.31
2022-11-25T03:55:08.699Z,93.71
2022-11-25T03:57:35.949Z,93.59
2022-11-25T04:00:03.330Z,92.39
2022-11-25T04:02:30.444Z,93.46
2022-11-25T04:04:57.395Z,93.44
2022-11-25T04:07:24.566Z,92.94
2022-11-25T04:09:51.440Z,93.57
2022-11-25T04:12:37.025Z,93.43
2022-11-25T04:15:04.807Z,93.42
2022-11-25T04:17:31.770Z,93.51
2022-11-25T04:19:58.708Z,93.72
2022-11-25T04:22:25.665Z,92.53
2022-11-25T04:24:52.577Z,93.46
2022-11-25T04:27:20.595Z,93.03
2022-11-25T04:29:48.053Z,92.31
2022-11-25T04:32:14.987Z,93.55
2022-11-25T04:34:41.924Z,93.22
2022-11-25T04:37:09.073Z,92.87
2022-11-25T04:39:36.002Z,92.53
2022-11-25T04:42:21.609Z,92.79
2022-11-25T04:45:07.264Z,93.17
2022-11-25T04:47:36.005Z,92.54
2022-11-25T04:50:04.479Z,93.64
2022-11-25T04:52:31.573Z,92.97
2022-11-25T04:54:58.521Z,93.00
2022-11-25T04:57:25.519Z,92.78
2022-11-25T04:59:52.575Z,93.81
2022-11-25T05:02:22.663Z,93.45
2022-11-25T05:04:51.147Z,92.66
2022-11-25T05:07:20.150Z,93.12
2022-11-25T05:09:47.913Z,93.35
2022-11-25T05:12:18.193Z,94.04
2022-11-25T05:14:45.588Z,93.09
2022-11-25T05:17:18.840Z,92.76
2022-11-25T05:19:46.380Z,93.04
2022-11-25T05:22:14.918Z,92.82
2022-11-25T05:24:41.880Z,93.47
2022-11-25T05:27:09.702Z,93.25
2022-11-25T05:29:38.170Z,93.45
2022-11-25T05:32:06.867Z,93.11
2022-11-25T05:34:34.108Z,93.34
2022-11-25T05:37:01.315Z,93.34
2022-11-25T05:39:28.590Z,94.03
2022-11-25T05:41:55.475Z,94.11
2022-11-25T05:44:23.260Z,93.55
2022-11-25T05:46:50.756Z,94.37
2022-11-25T05:49:18.984Z,93.48
2022-11-25T05:51:46.389Z,94.30
2022-11-25T05:54:14.362Z,93.48
2022-11-25T05:56:41.613Z,93.95
2022-11-25T05:59:08.497Z,94.33
2022-11-25T06:01:35.412Z,93.17
2022-11-25T06:04:04.125Z,93.60
2022-11-25T06:06:31.380Z,93.62
2022-11-25T06:08:58.332Z,93.28
2022-11-25T06:11:25.936Z,93.46
2022-11-25T06:13:53.353Z,92.93
2022-11-25T06:16:22.981Z,92.77
2022-11-25T06:18:50.607Z,93.26
2022-11-25T06:21:18.274Z,92.90
2022-11-25T06:23:46.370Z,93.51
2022-11-25T06:26:14.792Z,94.37
2022-11-25T06:28:41.827Z,94.01
2022-11-25T06:31:12.547Z,94.27
2022-11-25T06:33:39.764Z,93.40
2022-11-25T06:36:09.170Z,93.95
2022-11-25T06:38:36.561Z,93.52
2022-11-25T06:41:05.035Z,92.93
2022-11-25T06:43:32.968Z,92.64
2022-11-25T06:46:04.927Z,92.51
2022-11-25T06:48:32.402Z,93.09
2022-11-25T06:51:01.720Z,92.79
2022-11-25T06:53:28.990Z,92.43
2022-11-25T06:56:06.481Z,92.54
2022-11-25T06:58:36.368Z,92.08
2022-11-25T07:01:12.008Z,92.32
2022-11-25T07:03:39.438Z,92.67
2022-11-25T07:06:06.876Z,92.77
2022-11-25T07:08:34.561Z,92.64
2022-11-25T07:11:07.319Z,93.05
2022-11-25T07:13:34.714Z,92.32
2022-11-25T07:16:06.394Z,93.24
2022-11-25T07:18:36.031Z,93.30
2022-11-25T07:21:05.665Z,93.51
2022-11-25T07:23:32.706Z,92.83
2022-11-25T07:26:08.390Z,93.23
2022-11-25T07:28:36.525Z,93.33
2022-11-25T07:31:32.682Z,92.32
2022-11-25T07:34:11.387Z,93.27
2022-11-25T07:36:39.348Z,92.91
2022-11-25T07:39:09.648Z,92.67
2022-11-25T07:41:36.866Z,93.93
2022-11-25T07:44:06.489Z,93.86
2022-11-25T07:46:36.386Z,93.96
2022-11-25T07:49:07.430Z,93.85
2022-11-25T07:51:37.188Z,93.54
2022-11-25T07:54:07.205Z,93.21
2022-11-25T07:56:36.346Z,92.53
2022-11-25T07:59:03.500Z,91.57
2022-11-25T08:01:30.476Z,91.94
2022-11-25T08:03:58.521Z,94.40
2022-11-25T08:06:44.908Z,94.13
2022-11-25T08:09:14.402Z,94.94
2022-11-25T08:11:42.799Z,95.04
2022-11-25T08:14:10.547Z,94.11
2022-11-25T08:16:38.905Z,94.30
2022-11-25T08:19:08.643Z,93.89
2022-11-25T08:21:35.596Z,93.57
2022-11-25T08:24:03.383Z,93.10
2022-11-25T08:26:35.167Z,92.52
2022-11-25T08:29:03.284Z,92.93
2022-11-25T08:31:33.313Z,92.34
2022-11-25T08:34:00.471Z,92.07
2022-11-25T08:36:29.894Z,92.40
2022-11-25T08:38:59.582Z,92.26
2022-11-25T08:41:35.960Z,92.05
2022-11-25T08:44:05.568Z,92.28
2022-11-25T08:46:36.581Z,91.92
2022-11-25T08:49:09.392Z,91.61
2022-11-25T08:51:37.978Z,90.75
2022-11-25T08:54:07.987Z,91.30
2022-11-25T08:56:35.407Z,90.72
2022-11-25T08:59:02.535Z,90.37
2022-11-25T09:01:29.801Z,90.04
2022-11-25T09:03:57.393Z,90.09
2022-11-25T09:06:26.818Z,89.81
2022-11-25T09:09:02.057Z,90.73
2022-11-25T09:11:29.179Z,89.64
2022-11-25T09:13:56.362Z,89.89
2022-11-25T09:16:24.479Z,89.67
2022-11-25T09:18:56.019Z,89.23
2022-11-25T09:21:25.354Z,89.18
2022-11-25T09:23:54.265Z,89.21
2022-11-25T09:26:35.944Z,88.94
2022-11-25T09:29:03.532Z,88.16
2022-11-25T09:31:30.541Z,88.67
2022-11-25T09:33:57.607Z,88.83
2022-11-25T09:36:25.173Z,88.51
2022-11-25T09:38:52.251Z,88.02
2022-11-25T09:41:58.901Z,88.05
2022-11-25T09:45:00.593Z,88.29
2022-11-25T09:47:43.586Z,88.35
2022-11-25T09:50:36.811Z,88.24
2022-11-25T09:53:27.033Z,87.41
2022-11-25T09:56:01.822Z,87.17
2022-11-25T09:58:45.113Z,87.74
2022-11-25T10:01:20.984Z,86.90
2022-11-25T10:04:13.845Z,86.67
2022-11-25T10:06:54.939Z,86.54
2022-11-25T10:09:26.259Z,86.86
2022-11-25T10:11:58.404Z,87.09
2022-11-25T10:14:48.616Z,86.53
2022-11-25T10:17:38.729Z,86.51
2022-11-25T10:20:23.796Z,86.92
2022-11-25T10:23:27.653Z,86.74
2022-11-25T10:26:02.397Z,85.78
2022-11-25T10:28:35.329Z,85.21
2022-11-25T10:31:07.607Z,86.12
2022-11-25T10:33:40.554Z,85.79
2022-11-25T10:36:10.666Z,86.88
2022-11-25T10:38:45.719Z,86.24
2022-11-25T10:41:17.917Z,86.24
2022-11-25T10:43:48.264Z,87.16
2022-11-25T10:47:12.350Z,87.41
2022-11-25T10:49:42.596Z,87.69
2022-11-25T10:52:12.413Z,87.31
2022-11-25T10:54:40.061Z,86.41
2022-11-25T10:57:21.272Z,86.72
2022-11-25T10:59:59.250Z,86.37
2022-11-25T11:02:37.464Z,86.72
2022-11-25T11:05:29.964Z,86.67
2022-11-25T11:08:23.249Z,87.24
2022-11-25T11:11:10.148Z,87.88
2022-11-25T11:13:37.173Z,87.37
2022-11-25T11:16:04.276Z,87.00
2022-11-25T11:18:37.028Z,87.54
2022-11-25T11:21:07.524Z,86.71
2022-11-25T11:23:52.279Z,87.09
2022-11-25T11:26:26.865Z,87.87
2022-11-25T11:29:21.475Z,87.46
2022-11-25T11:32:19.501Z,86.43
2022-11-25T11:35:05.834Z,86.58
2022-11-25T11:37:59.652Z,86.52
2022-11-25T11:40:37.661Z,84.74
2022-11-25T11:43:36.905Z,85.79
2022-11-25T11:46:25.537Z,85.38
2022-11-25T11:49:02.877Z,84.65
2022-11-25T11:51:35.637Z,85.88
2022-11-25T11:54:12.478Z,85.92
2022-11-25T11:57:24.123Z,85.98
2022-11-25T11:59:55.925Z,85.96
2022-11-25T12:02:28.731Z,85.21
2022-11-25T12:05:02.673Z,85.86
2022-11-25T12:07:44.688Z,86.09
2022-11-25T12:10:14.680Z,85.69
2022-11-25T12:13:19.768Z,85.67
2022-11-25T12:15:58.336Z,85.52
2022-11-25T12:18:49.818Z,83.31
2022-11-25T12:21:44.615Z,82.98
2022-11-25T12:24:42.389Z,81.94
2022-11-25T12:27:18.043Z,83.41
2022-11-25T12:29:54.544Z,83.74
2022-11-25T12:32:56.719Z,83.87
2022-11-25T12:35:45.135Z,82.67
2022-11-25T12:38:34.339Z,83.34
2022-11-25T12:41:22.146Z,83.96
2022-11-25T12:43:54.777Z,83.65
2022-11-25T12:46:47.795Z,84.75
2022-11-25T12:49:25.282Z,84.59
2022-11-25T12:52:21.146Z,84.43
2022-11-25T12:55:10.765Z,85.30
2022-11-25T12:58:13.084Z,85.36
2022-11-25T13:01:02.211Z,85.96
2022-11-25T13:03:50.777Z,85.72
2022-11-25T13:06:51.581Z,85.53
2022-11-25T13:09:30.615Z,85.29
2022-11-25T13:12:28.277Z,85.12
2022-11-25T13:15:21.131Z,85.39
2022-11-25T13:17:50.825Z,86.55
2022-11-25T13:20:29.961Z,86.91
2022-11-25T13:23:05.980Z,86.63
2022-11-25T13:25:33.959Z,87.48
2022-11-25T13:28:03.295Z,87.06
2022-11-25T13:30:33.012Z,86.66
2022-11-25T13:33:11.972Z,87.19
2022-11-25T13:35:44.721Z,87.36
2022-11-25T13:38:29.833Z,87.45
2022-11-25T13:41:04.632Z,87.72
2022-11-25T13:43:32.297Z,87.58
2022-11-25T13:45:59.453Z,87.57
2022-11-25T13:48:32.602Z,88.23
2022-11-25T13:51:23.107Z,88.29
2022-11-25T13:54:06.773Z,88.59
2022-11-25T13:56:36.951Z,88.64
2022-11-25T13:59:14.046Z,88.90
2022-11-25T14:01:48.178Z,88.53
2022-11-25T14:04:16.533Z,88.85
2022-11-25T14:06:55.237Z,88.53
2022-11-25T14:09:31.130Z,88.82
2022-11-25T14:12:25.640Z,88.97
2022-11-25T14:15:09.299Z,88.85
2022-11-25T14:17:54.795Z,88.93
2022-11-25T14:20:37.084Z,89.18
2022-11-25T14:23:09.804Z,89.22
2022-11-25T14:25:51.505Z,89.45
2022-11-25T14:28:56.523Z,90.15
2022-11-25T14:31:33.436Z,89.54
2022-11-25T14:34:43.410Z,89.85
2022-11-25T14:37:34.596Z,89.70
2022-11-25T14:40:13.521Z,89.93
2022-11-25T14:42:45.553Z,91.22
2022-11-25T14:45:26.624Z,92.28
2022-11-25T14:47:53.681Z,91.87
2022-11-25T14:50:34.807Z,91.95
2022-11-25T14:53:09.657Z,91.61
2022-11-25T14:55:37.423Z,91.52
2022-11-25T14:58:04.451Z,91.52
2022-11-25T15:00:31.422Z,91.68
2022-11-25T15:03:02.215Z,91.50
2022-11-25T15:05:35.230Z,91.90
2022-11-25T15:08:08.344Z,91.68
2022-11-25T15:10:38.690Z,91.23
2022-11-25T15:13:13.646Z,93.29
2022-11-25T15:15:41.014Z,94.27
2022-11-25T15:18:13.568Z,94.21
2022-11-25T15:20:40.485Z,94.02
2022-11-25T15:23:14.530Z,94.09
2022-11-25T15:25:54.757Z,93.74
2022-11-25T15:28:21.664Z,93.35
2022-11-25T15:31:00.120Z,94.03
2022-11-25T15:33:29.214Z,94.31
2022-11-25T15:35:56.412Z,94.20
2022-11-25T15:38:43.601Z,94.06
2022-11-25T15:41:36.402Z,93.70
2022-11-25T15:44:06.520Z,93.31
2022-11-25T15:46:36.249Z,93.06
2022-11-25T15:49:06.961Z,93.05
2022-11-25T15:51:44.969Z,92.42
2022-11-25T15:54:14.872Z,92.40
2022-11-25T15:56:47.745Z,92.45
2022-11-25T15:59:41.384Z,92.31
2022-11-25T16:02:29.885Z,92.02
2022-11-25T16:05:15.303Z,92.20
2022-11-25T16:07:51.688Z,92.64
2022-11-25T16:10:20.129Z,93.64
2022-11-25T16:13:29.528Z,93.56
2022-11-25T16:16:08.545Z,94.13
2022-11-25T16:18:59.598Z,94.81
2022-11-25T16:21:48.579Z,95.59
2022-11-25T16:24:33.011Z,95.80
2022-11-25T16:27:21.827Z,95.97
2022-11-25T16:29:56.285Z,95.17
2022-11-25T16:32:30.523Z,94.62
2022-11-25T16:35:11.764Z,94.35
2022-11-25T16:37:38.673Z,94.68
2022-11-25T16:40:06.410Z,94.84
2022-11-25T16:42:34.009Z,94.69
2022-11-25T16:45:01.726Z,93.93
2022-11-25T16:47:28.622Z,93.45
2022-11-25T16:49:55.569Z,93.87
2022-11-25T16:52:22.968Z,93.54
2022-11-25T16:54:49.999Z,93.84
2022-11-25T16:57:20.890Z,93.61
2022-11-25T16:59:54.343Z,93.63
2022-11-25T17:02:24.614Z,93.42
2022-11-25T17:04:51.810Z,93.08
2022-11-25T17:07:35.039Z,92.89
2022-11-25T17:10:02.223Z,92.16
2022-11-25T17:12:33.568Z,92.46
2022-11-25T17:15:02.447Z,92.16
2022-11-25T17:17:29.629Z,92.02
2022-11-25T17:19:56.754Z,92.47
2022-11-25T17:22:25.600Z,93.10
2022-11-25T17:24:53.136Z,92.89
2022-11-25T17:27:29.120Z,93.07
2022-11-25T17:29:59.332Z,93.02
2022-11-25T17:32:26.977Z,94.46
2022-11-25T17:34:54.431Z,95.01
2022-11-25T17:37:24.343Z,95.57
2022-11-25T17:39:55.288Z,95.61
2022-11-25T17:42:32.384Z,96.01
2022-11-25T17:45:00.714Z,95.91
2022-11-25T17:47:27.733Z,96.15
2022-11-25T17:49:54.720Z,96.02
2022-11-25T17:52:21.731Z,96.35
2022-11-25T17:54:48.691Z,95.82
2022-11-25T17:57:21.304Z,96.00
2022-11-25T17:59:48.699Z,95.71
2022-11-25T18:02:20.906Z,95.82
2022-11-25T18:04:48.485Z,95.39
2022-11-25T18:07:15.550Z,95.30
2022-11-25T18:09:42.749Z,94.87
2022-11-25T18:12:16.846Z,94.46
2022-11-25T18:14:45.017Z,94.19
2022-11-25T18:17:17.007Z,93.94
2022-11-25T18:19:48.566Z,94.66
2022-11-25T18:22:19.830Z,94.65
2022-11-25T18:24:46.833Z,94.60
2022-11-25T18:27:27.360Z,95.25
2022-11-25T18:29:55.630Z,95.29
2022-11-25T18:32:23.870Z,94.25
2022-11-25T18:34:51.737Z,93.65
2022-11-25T18:37:18.751Z,93.21
2022-11-25T18:39:45.790Z,93.06
2022-11-25T18:42:27.216Z,94.31
2022-11-25T18:44:56.236Z,94.05
2022-11-25T18:47:23.425Z,94.30
2022-11-25T18:49:55.392Z,94.68
2022-11-25T18:52:23.416Z,94.84
2022-11-25T18:54:50.381Z,95.85
2022-11-25T18:57:17.378Z,96.14
2022-11-25T18:59:45.515Z,95.93
2022-11-25T19:02:18.640Z,95.93
2022-11-25T19:04:45.606Z,95.76
2022-11-25T19:07:12.532Z,95.84
2022-11-25T19:09:39.567Z,95.71
2022-11-25T19:12:07.584Z,95.32
2022-11-25T19:14:38.013Z,95.71
2022-11-25T19:17:19.405Z,95.98
2022-11-25T19:19:46.871Z,96.21
2022-11-25T19:22:15.959Z,95.92
2022-11-25T19:24:42.952Z,96.47
2022-11-25T19:27:28.927Z,96.66
2022-11-25T19:29:55.917Z,97.39
2022-11-25T19:32:33.293Z,97.27
2022-11-25T19:35:06.853Z,97.02
2022-11-25T19:37:33.891Z,96.87
2022-11-25T19:40:00.885Z,96.77
2022-11-25T19:42:31.840Z,96.16
2022-11-25T19:44:58.823Z,95.48
2022-11-25T19:47:27.414Z,94.74
2022-11-25T19:49:58.660Z,94.88
2022-11-25T19:52:35.214Z,94.35
2022-11-25T19:55:10.037Z,94.63
2022-11-25T19:57:36.931Z,94.23
2022-11-25T20:00:04.679Z,94.33
2022-11-25T20:02:31.838Z,93.96
2022-11-25T20:04:58.789Z,94.16
2022-11-25T20:07:27.273Z,93.84
2022-11-25T20:09:56.313Z,94.53
2022-11-25T20:12:28.277Z,94.30
2022-11-25T20:14:55.178Z,94.50
2022-11-25T20:17:28.856Z,94.33
2022-11-25T20:19:59.922Z,94.52
2022-11-25T20:22:31.562Z,94.70
2022-11-25T20:25:00.686Z,94.31
2022-11-25T20:27:28.741Z,94.66
2022-11-25T20:29:55.668Z,94.77
2022-11-25T20:32:28.548Z,94.46
2022-11-25T20:34:59.314Z,94.13
2022-11-25T20:37:29.541Z,94.31
2022-11-25T20:39:59.132Z,94.22
2022-11-25T20:42:26.801Z,94.15
2022-11-25T20:44:57.541Z,93.83
2022-11-25T20:47:26.487Z,94.17
2022-11-25T20:49:54.077Z,93.75
2022-11-25T20:52:24.907Z,93.57
2022-11-25T20:54:51.823Z,93.89
2022-11-25T20:57:18.699Z,94.46
2022-11-25T20:59:45.629Z,94.04
2022-11-25T21:02:12.834Z,93.77
2022-11-25T21:04:39.922Z,93.98
2022-11-25T21:07:15.668Z,93.77
2022-11-25T21:09:43.027Z,94.06
2022-11-25T21:12:19.319Z,94.07
2022-11-25T21:14:47.217Z,94.00
2022-11-25T21:17:14.081Z,93.93
2022-11-25T21:19:40.995Z,93.90
2022-11-25T21:22:15.044Z,93.56
2022-11-25T21:24:42.636Z,93.58
2022-11-25T21:27:15.636Z,93.71
2022-11-25T21:29:44.266Z,93.86
2022-11-25T21:32:25.382Z,93.40
2022-11-25T21:34:52.397Z,93.60
2022-11-25T21:37:28.946Z,93.66
2022-11-25T21:39:58.016Z,93.75
2022-11-25T21:42:25.661Z,93.63
2022-11-25T21:44:53.660Z,93.81
2022-11-25T21:47:26.044Z,93.71
2022-11-25T21:49:53.357Z,94.38
2022-11-25T21:52:20.262Z,94.52
2022-11-25T21:54:47.523Z,93.70
2022-11-25T21:57:18.538Z,94.16
2022-11-25T21:59:46.510Z,94.00
2022-11-25T22:02:21.707Z,94.66
2022-11-25T22:04:49.220Z,94.27
2022-11-25T22:07:16.542Z,94.71
2022-11-25T22:09:44.194Z,94.61
2022-11-25T22:12:41.566Z,95.33
2022-11-25T22:15:21.203Z,95.32
2022-11-25T22:17:50.021Z,95.03
2022-11-25T22:20:28.109Z,94.80
2022-11-25T22:22:55.927Z,94.65
2022-11-25T22:25:27.067Z,94.15
2022-11-25T22:27:54.282Z,93.85
2022-11-25T22:30:23.181Z,93.95
2022-11-25T22:33:00.601Z,93.47
2022-11-25T22:35:28.321Z,94.08
2022-11-25T22:37:55.704Z,94.41
2022-11-25T22:40:23.859Z,94.51
2022-11-25T22:42:55.207Z,94.40
2022-11-25T22:45:34.586Z,94.57
2022-11-25T22:48:05.719Z,94.32
2022-11-25T22:50:34.825Z,94.34
2022-11-25T22:53:02.112Z,94.42
2022-11-25T22:55:32.093Z,94.36
2022-11-25T22:58:01.074Z,94.14
2022-11-25T23:00:32.206Z,94.16
2022-11-25T23:03:01.051Z,93.92
2022-11-25T23:05:33.958Z,94.06
2022-11-25T23:08:02.828Z,94.21
2022-11-25T23:10:32.421Z,94.57
2022-11-25T23:12:59.451Z,94.41
2022-11-25T23:15:26.802Z,94.30
2022-11-25T23:17:59.238Z,94.63
2022-11-25T23:20:36.871Z,94.52
2022-11-25T23:23:15.287Z,94.62
2022-11-25T23:25:42.809Z,94.51
2022-11-25T23:28:09.829Z,94.56
2022-11-25T23:30:37.735Z,94.38
2022-11-25T23:33:10.885Z,94.32
2022-11-25T23:35:39.475Z,94.30
2022-11-25T23:38:11.853Z,94.01
2022-11-25T23:40:39.288Z,94.32
2022-11-25T23:43:15.084Z,94.15
2022-11-25T23:45:56.775Z,93.70
2022-11-25T23:48:29.139Z,94.45
2022-11-25T23:50:58.594Z,93.98
2022-11-25T23:53:33.816Z,94.12
2022-11-25T23:56:00.766Z,93.94
2022-11-25T23:58:27.833Z,93.86
